Portada
METAR-TAF:

METAR-TAF

Aeropuertos :

Aeropuerto Internacional de Polokwane

Polokwane, Sudáfrica

latitud: 23-50-43S, longitud: 29-27-31E, altitud: 1242 m

Observación

El informe se hizo hace 51 minutos, a las 08:00 UTC
Viento 9 kt del noreste
Temperatura 19°C
Humedad 64%
Presión 1030 hPa
Visibilidad 10 km o más
Cielo nuboso a una altura de 1200 ft

METAR: FAPP 160800Z 04009KT 9999 BKN012 19/12 Q1030 BECMG BKN015

Hora: 10:51 (08:51 UTC)

Pronóstico

El informe se hizo hace 2 horas y 51 minutos, a las 06:00 UTC
Pronóstico válido del 16 a las 07 UTC al 16 a las 18 UTC
Viento 10 kt del este-noreste
Visibilidad 10 km o más
Cielo nuboso a una altura de 800 ft
Evolucionando progresivamente
del 16 a las 07 UTC al 16 a las 09 UTC
Cielo nuboso a una altura de 2000 ft

TAF: FAPP 160600Z 1607/1618 06010KT 9999 BKN008 TX21/1613Z TN14/1607Z BECMG 1607/1609 BKN020

Observaciones y pronósticos meteorológicos de más de 4000 aeropuertos (mensajes METAR y TAF).

Los puntos amarillos y rojos representan las estaciones disponibles.

Ponga el ratón en el punto deseado para ver el nombre de la estación.

Haga clic para ver las observaciones y los pronósticos meteorológicos.

Para cambiar el mapa : haga clic en los botones verdes con una cruz de color negro para hacer un zoom, en el botón verde con un guión para alejar o en las flechas verdes para mapas adyacentes.


METAR-TAF: